createdAt,value
2017-10-30T00:02:27.443Z,8.68
2017-10-30T00:05:02.399Z,8.69
2017-10-30T00:07:37.059Z,8.71
2017-10-30T00:10:11.870Z,8.67
2017-10-30T00:12:46.595Z,8.60
2017-10-30T00:15:21.318Z,8.57
2017-10-30T00:17:56.080Z,8.59
2017-10-30T00:20:30.869Z,8.59
2017-10-30T00:23:05.481Z,8.57
2017-10-30T00:25:40.146Z,8.49
2017-10-30T00:28:14.511Z,8.46
2017-10-30T00:30:49.378Z,8.39
2017-10-30T00:33:24.159Z,8.33
2017-10-30T00:35:59.119Z,8.28
2017-10-30T00:38:33.742Z,8.26
2017-10-30T00:41:08.635Z,8.25
2017-10-30T00:43:44.227Z,8.22
2017-10-30T00:46:19.270Z,8.14
2017-10-30T00:48:54.206Z,8.20
2017-10-30T00:51:28.855Z,8.21
2017-10-30T00:54:04.390Z,8.24
2017-10-30T00:56:39.171Z,8.26
2017-10-30T00:59:13.871Z,8.20
2017-10-30T01:01:49.706Z,8.14
2017-10-30T01:04:24.318Z,8.12
2017-10-30T01:06:59.042Z,8.13
2017-10-30T01:09:33.834Z,8.14
2017-10-30T01:12:08.935Z,8.14
2017-10-30T01:14:43.584Z,8.14
2017-10-30T01:17:19.588Z,8.17
2017-10-30T01:19:55.239Z,8.18
2017-10-30T01:22:30.192Z,8.19
2017-10-30T01:25:04.731Z,8.21
2017-10-30T01:27:39.419Z,8.28
2017-10-30T01:30:14.151Z,8.32
2017-10-30T01:32:48.811Z,8.38
2017-10-30T01:35:23.567Z,8.37
2017-10-30T01:37:58.279Z,8.32
2017-10-30T01:40:32.991Z,8.34
2017-10-30T01:43:07.687Z,8.26
2017-10-30T01:45:42.375Z,8.23
2017-10-30T01:48:16.775Z,8.22
2017-10-30T01:50:51.836Z,8.16
2017-10-30T01:53:26.424Z,8.11
2017-10-30T01:56:00.787Z,8.09
2017-10-30T01:58:35.236Z,8.07
2017-10-30T02:01:11.382Z,8.09
2017-10-30T02:03:46.311Z,8.14
2017-10-30T02:06:21.126Z,8.06
2017-10-30T02:08:56.018Z,8.04
2017-10-30T02:11:30.478Z,8.01
2017-10-30T02:14:06.635Z,7.95
2017-10-30T02:16:41.246Z,7.96
2017-10-30T02:19:16.551Z,7.98
2017-10-30T02:21:51.290Z,7.95
2017-10-30T02:24:25.838Z,7.89
2017-10-30T02:27:00.527Z,7.89
2017-10-30T02:29:34.980Z,7.89
2017-10-30T02:32:09.468Z,7.90
2017-10-30T02:34:43.964Z,7.92
2017-10-30T02:37:18.623Z,7.89
2017-10-30T02:39:53.263Z,7.93
2017-10-30T02:42:28.008Z,7.93
2017-10-30T02:45:02.647Z,7.95
2017-10-30T02:47:37.408Z,7.97
2017-10-30T02:50:12.061Z,7.94
2017-10-30T02:52:46.791Z,7.97
2017-10-30T02:55:21.515Z,8.00
2017-10-30T02:57:56.167Z,7.98
2017-10-30T03:00:30.847Z,7.93
2017-10-30T03:03:05.519Z,7.93
2017-10-30T03:05:40.179Z,7.89
2017-10-30T03:08:14.739Z,7.87
2017-10-30T03:10:49.379Z,7.90
2017-10-30T03:13:24.224Z,7.96
2017-10-30T03:15:58.934Z,8.01
2017-10-30T03:18:33.699Z,7.99
2017-10-30T03:21:08.286Z,7.97
2017-10-30T03:23:42.750Z,7.92
2017-10-30T03:26:17.243Z,7.89
2017-10-30T03:28:51.687Z,7.88
2017-10-30T03:31:26.503Z,7.90
2017-10-30T03:34:01.255Z,7.95
2017-10-30T03:36:36.079Z,8.00
2017-10-30T03:39:10.466Z,8.02
2017-10-30T03:41:45.386Z,7.85
2017-10-30T03:44:20.020Z,7.99
2017-10-30T03:46:54.723Z,7.99
2017-10-30T03:49:28.895Z,7.99
2017-10-30T03:52:03.676Z,8.00
2017-10-30T03:54:38.582Z,7.98
2017-10-30T03:57:13.308Z,8.01
2017-10-30T03:59:47.599Z,8.01
2017-10-30T04:02:22.241Z,8.03
2017-10-30T04:04:56.908Z,8.02
2017-10-30T04:07:31.951Z,8.00
2017-10-30T04:10:06.619Z,8.02
2017-10-30T04:12:42.318Z,8.01
2017-10-30T04:15:17.140Z,8.02
2017-10-30T04:17:52.979Z,7.98
2017-10-30T04:20:28.062Z,7.98
2017-10-30T04:23:02.766Z,7.99
2017-10-30T04:25:37.487Z,7.98
2017-10-30T04:28:12.168Z,7.99
2017-10-30T04:30:46.803Z,8.01
2017-10-30T04:33:21.571Z,7.98
2017-10-30T04:35:56.074Z,7.92
2017-10-30T04:38:30.913Z,7.88
2017-10-30T04:41:05.642Z,7.83
2017-10-30T04:43:40.464Z,7.79
2017-10-30T04:46:15.255Z,7.76
2017-10-30T04:48:49.962Z,7.79
2017-10-30T04:51:24.667Z,7.76
2017-10-30T04:53:59.523Z,7.78
2017-10-30T04:56:34.511Z,7.82
2017-10-30T04:59:09.443Z,7.07
2017-10-30T05:01:43.914Z,7.77
2017-10-30T05:04:18.571Z,7.78
2017-10-30T05:06:53.402Z,7.81
2017-10-30T05:09:28.159Z,7.86
2017-10-30T05:12:02.838Z,7.85
2017-10-30T05:14:37.523Z,7.86
2017-10-30T05:17:12.195Z,7.86
2017-10-30T05:19:46.882Z,7.83
2017-10-30T05:22:21.614Z,7.84
2017-10-30T05:24:56.358Z,7.81
2017-10-30T05:27:31.219Z,7.81
2017-10-30T05:30:06.103Z,7.79
2017-10-30T05:32:41.850Z,7.73
2017-10-30T05:35:16.279Z,7.74
2017-10-30T05:37:51.215Z,7.74
2017-10-30T05:40:25.935Z,7.72
2017-10-30T05:43:00.663Z,7.69
2017-10-30T05:45:35.446Z,7.67
2017-10-30T05:48:10.683Z,7.73
2017-10-30T05:50:45.675Z,7.70
2017-10-30T05:53:20.479Z,7.62
2017-10-30T05:55:55.324Z,7.59
2017-10-30T05:58:30.159Z,7.51
2017-10-30T06:01:05.112Z,7.57
2017-10-30T06:03:39.630Z,7.64
2017-10-30T06:06:14.567Z,7.72
2017-10-30T06:08:48.951Z,7.78
2017-10-30T06:11:23.687Z,8.07
2017-10-30T06:13:58.836Z,8.47
2017-10-30T06:16:33.587Z,8.64
2017-10-30T06:19:08.310Z,8.61
2017-10-30T06:21:43.159Z,8.39
2017-10-30T06:24:17.951Z,8.09
2017-10-30T06:26:53.195Z,7.76
2017-10-30T06:29:28.242Z,7.71
2017-10-30T06:32:03.019Z,7.58
2017-10-30T06:34:37.706Z,7.49
2017-10-30T06:37:12.504Z,7.46
2017-10-30T06:39:47.255Z,7.43
2017-10-30T06:42:22.483Z,7.38
2017-10-30T06:44:57.775Z,7.41
2017-10-30T06:47:32.496Z,7.36
2017-10-30T06:50:07.394Z,7.37
2017-10-30T06:52:42.207Z,7.38
2017-10-30T06:55:16.955Z,7.33
2017-10-30T06:57:51.727Z,7.30
2017-10-30T07:00:26.484Z,7.30
2017-10-30T07:03:01.287Z,7.35
2017-10-30T07:05:36.062Z,7.36
2017-10-30T07:08:10.711Z,7.40
2017-10-30T07:10:45.525Z,7.43
2017-10-30T07:13:20.509Z,7.51
2017-10-30T07:15:54.884Z,7.51
2017-10-30T07:18:29.515Z,7.54
2017-10-30T07:21:03.851Z,7.51
2017-10-30T07:23:38.962Z,7.52
2017-10-30T07:26:13.598Z,7.55
2017-10-30T07:28:48.094Z,7.52
2017-10-30T07:31:22.987Z,7.69
2017-10-30T07:33:57.471Z,7.76
2017-10-30T07:36:32.308Z,7.85
2017-10-30T07:39:07.034Z,7.89
2017-10-30T07:41:41.784Z,7.97
2017-10-30T07:44:16.542Z,7.99
2017-10-30T07:46:51.318Z,8.09
2017-10-30T07:49:26.081Z,8.16
2017-10-30T07:52:00.659Z,8.27
2017-10-30T07:54:35.486Z,8.43
2017-10-30T07:57:10.180Z,8.56
2017-10-30T07:59:44.785Z,8.68
2017-10-30T08:02:19.446Z,8.81
2017-10-30T08:04:54.282Z,8.93
2017-10-30T08:07:29.268Z,9.09
2017-10-30T08:10:03.547Z,9.23
2017-10-30T08:12:38.125Z,9.39
2017-10-30T08:15:12.781Z,9.54
2017-10-30T08:17:47.415Z,9.55
2017-10-30T08:20:21.868Z,9.80
2017-10-30T08:22:56.487Z,9.95
2017-10-30T08:25:31.072Z,10.02
2017-10-30T08:28:05.727Z,10.00
2017-10-30T08:30:40.280Z,10.07
2017-10-30T08:33:14.868Z,10.04
2017-10-30T08:35:49.507Z,9.94
2017-10-30T08:38:24.211Z,9.83
2017-10-30T08:40:58.883Z,9.83
2017-10-30T08:43:33.547Z,9.85
2017-10-30T08:46:08.215Z,9.88
2017-10-30T08:48:42.855Z,10.01
2017-10-30T08:51:17.579Z,10.20
2017-10-30T08:53:52.368Z,10.34
2017-10-30T08:56:27.039Z,10.50
2017-10-30T08:59:01.875Z,10.76
2017-10-30T09:01:36.789Z,11.09
2017-10-30T09:04:11.552Z,11.25
2017-10-30T09:06:46.476Z,11.46
2017-10-30T09:09:21.275Z,11.62
2017-10-30T09:11:55.859Z,11.73
2017-10-30T09:14:30.887Z,11.87
2017-10-30T09:17:05.160Z,12.02
2017-10-30T09:19:39.944Z,12.18
2017-10-30T09:22:14.320Z,12.40
2017-10-30T09:24:48.899Z,12.72
2017-10-30T09:27:23.567Z,12.99
2017-10-30T09:29:58.323Z,12.97
2017-10-30T09:32:32.807Z,12.92
2017-10-30T09:35:07.367Z,12.91
2017-10-30T09:37:42.103Z,12.89
2017-10-30T09:40:16.438Z,12.83
2017-10-30T09:42:51.119Z,12.76
2017-10-30T09:45:25.654Z,12.78
2017-10-30T09:48:00.463Z,12.72
2017-10-30T09:50:35.012Z,12.70
2017-10-30T09:53:09.736Z,12.60
2017-10-30T09:55:44.343Z,12.57
2017-10-30T09:58:19.158Z,12.65
2017-10-30T10:00:53.749Z,12.92
2017-10-30T10:03:28.347Z,13.09
2017-10-30T10:06:03.009Z,13.13
2017-10-30T10:08:37.578Z,13.19
2017-10-30T10:11:12.155Z,13.23
2017-10-30T10:13:47.038Z,13.27
2017-10-30T10:16:21.663Z,13.38
2017-10-30T10:18:56.391Z,13.69
2017-10-30T10:21:30.822Z,13.95
2017-10-30T10:24:05.655Z,14.23
2017-10-30T10:26:40.207Z,14.40
2017-10-30T10:29:14.835Z,14.57
2017-10-30T10:31:49.706Z,14.66
2017-10-30T10:34:24.386Z,14.75
2017-10-30T10:36:59.282Z,14.77
2017-10-30T10:39:33.711Z,14.66
2017-10-30T10:42:08.402Z,14.54
2017-10-30T10:44:42.895Z,14.34
2017-10-30T10:47:17.831Z,14.64
2017-10-30T10:49:53.503Z,14.82
2017-10-30T10:52:27.808Z,14.78
2017-10-30T10:55:02.547Z,14.85
2017-10-30T10:57:37.120Z,14.82
2017-10-30T11:00:11.847Z,14.76
2017-10-30T11:02:46.587Z,14.71
2017-10-30T11:05:21.578Z,14.71
2017-10-30T11:07:57.310Z,14.72
2017-10-30T11:10:31.891Z,14.72
2017-10-30T11:13:06.651Z,14.44
2017-10-30T11:15:41.502Z,14.25
2017-10-30T11:18:16.102Z,14.30
2017-10-30T11:20:50.731Z,14.17
2017-10-30T11:23:25.582Z,14.14
2017-10-30T11:25:59.951Z,14.28
2017-10-30T11:28:34.808Z,14.51
2017-10-30T11:31:09.206Z,14.53
2017-10-30T11:33:44.250Z,14.43
2017-10-30T11:36:18.863Z,14.04
2017-10-30T11:38:53.528Z,13.75
2017-10-30T11:41:27.887Z,13.63
2017-10-30T11:44:03.971Z,13.73
2017-10-30T11:46:38.542Z,13.84
2017-10-30T11:49:14.144Z,13.87
2017-10-30T11:51:48.995Z,13.85
2017-10-30T11:54:23.848Z,13.74
2017-10-30T11:56:58.411Z,13.84
2017-10-30T11:59:33.099Z,14.05
2017-10-30T12:02:07.623Z,14.17
2017-10-30T12:04:41.787Z,14.27
2017-10-30T12:07:16.819Z,14.31
2017-10-30T12:09:52.154Z,14.20
2017-10-30T12:12:26.955Z,14.07
2017-10-30T12:15:01.708Z,13.99
2017-10-30T12:17:36.410Z,13.97
2017-10-30T12:20:11.247Z,14.00
2017-10-30T12:22:46.071Z,14.01
2017-10-30T12:25:20.717Z,14.12
2017-10-30T12:27:55.391Z,14.30
2017-10-30T12:30:29.943Z,14.41
2017-10-30T12:33:03.864Z,14.51
2017-10-30T12:35:39.019Z,14.56
2017-10-30T12:38:14.467Z,14.42
2017-10-30T12:40:49.088Z,14.31
2017-10-30T12:43:23.797Z,14.28
2017-10-30T12:45:59.745Z,14.45
2017-10-30T12:48:34.235Z,14.76
2017-10-30T12:51:10.024Z,15.02
2017-10-30T12:53:44.754Z,15.34
2017-10-30T12:56:19.183Z,15.12
2017-10-30T12:58:54.413Z,14.27
2017-10-30T13:01:28.950Z,13.59
2017-10-30T13:04:03.254Z,13.26
2017-10-30T13:06:38.095Z,13.15
2017-10-30T13:09:12.471Z,13.07
2017-10-30T13:11:48.624Z,13.15
2017-10-30T13:14:23.122Z,13.08
2017-10-30T13:16:57.702Z,12.87
2017-10-30T13:19:32.093Z,12.59
2017-10-30T13:22:07.034Z,12.58
2017-10-30T13:24:42.101Z,12.70
2017-10-30T13:27:16.693Z,12.70
2017-10-30T13:29:51.387Z,12.70
2017-10-30T13:32:26.307Z,12.68
2017-10-30T13:35:00.982Z,12.73
2017-10-30T13:37:36.881Z,12.61
2017-10-30T13:40:12.474Z,12.40
2017-10-30T13:42:47.300Z,12.27
2017-10-30T13:45:22.102Z,12.15
2017-10-30T13:47:56.831Z,12.05
2017-10-30T13:50:31.510Z,11.95
2017-10-30T13:53:07.313Z,11.88
2017-10-30T13:55:42.939Z,11.84
2017-10-30T13:58:17.831Z,11.84
2017-10-30T14:00:52.466Z,11.84
2017-10-30T14:03:27.243Z,11.77
2017-10-30T14:06:02.135Z,11.68
2017-10-30T14:08:36.592Z,11.71
2017-10-30T14:11:11.132Z,11.69
2017-10-30T14:13:46.894Z,11.61
2017-10-30T14:16:22.511Z,11.65
2017-10-30T14:18:57.130Z,11.69
2017-10-30T14:21:31.974Z,11.65
2017-10-30T14:24:06.399Z,11.67
2017-10-30T14:26:44.507Z,11.85
2017-10-30T14:29:19.486Z,11.97
2017-10-30T14:31:54.346Z,12.07
2017-10-30T14:34:28.936Z,12.31
2017-10-30T14:37:03.452Z,12.41
2017-10-30T14:39:37.919Z,12.48
2017-10-30T14:42:12.355Z,12.65
2017-10-30T14:44:47.123Z,12.72
2017-10-30T14:47:21.608Z,12.72
2017-10-30T14:49:56.428Z,12.61
2017-10-30T14:52:31.042Z,12.50
2017-10-30T14:55:05.678Z,12.44
2017-10-30T14:57:40.420Z,12.47
2017-10-30T15:00:20.198Z,12.53
2017-10-30T15:02:54.658Z,12.49
2017-10-30T15:05:29.494Z,12.44
2017-10-30T15:08:04.263Z,12.37
2017-10-30T15:10:38.899Z,12.40
2017-10-30T15:13:13.862Z,12.42
2017-10-30T15:15:48.206Z,12.30
2017-10-30T15:18:22.850Z,12.29
2017-10-30T15:20:57.270Z,12.18
2017-10-30T15:23:32.119Z,12.00
2017-10-30T15:26:06.564Z,11.84
2017-10-30T15:28:41.335Z,11.77
2017-10-30T15:31:15.787Z,11.68
2017-10-30T15:33:51.318Z,11.64
2017-10-30T15:36:25.963Z,11.72
2017-10-30T15:39:00.604Z,11.79
2017-10-30T15:41:36.171Z,11.80
2017-10-30T15:44:10.837Z,11.79
2017-10-30T15:46:45.378Z,11.78
2017-10-30T15:49:20.458Z,11.76
2017-10-30T15:51:54.919Z,11.70
2017-10-30T15:54:29.651Z,11.70
2017-10-30T15:57:04.767Z,11.59
2017-10-30T15:59:40.011Z,11.52
2017-10-30T16:02:15.607Z,11.40
2017-10-30T16:04:50.259Z,11.31
2017-10-30T16:07:24.774Z,11.23
2017-10-30T16:09:59.507Z,11.23
2017-10-30T16:12:34.310Z,11.22
2017-10-30T16:15:09.092Z,11.21
2017-10-30T16:17:44.707Z,11.19
2017-10-30T16:20:19.446Z,11.17
2017-10-30T16:22:54.067Z,11.14
2017-10-30T16:25:29.631Z,11.13
2017-10-30T16:28:04.319Z,11.22
2017-10-30T16:30:39.760Z,11.17
2017-10-30T16:33:14.849Z,11.10
2017-10-30T16:35:49.443Z,11.09
2017-10-30T16:38:23.769Z,11.04
2017-10-30T16:40:58.598Z,11.02
2017-10-30T16:43:32.975Z,11.06
2017-10-30T16:46:07.604Z,11.01
2017-10-30T16:48:42.023Z,10.93
2017-10-30T16:51:16.744Z,11.08
2017-10-30T16:53:51.702Z,11.15
2017-10-30T16:56:26.090Z,11.13
2017-10-30T16:59:00.744Z,11.12
2017-10-30T17:01:35.355Z,11.19
2017-10-30T17:04:09.803Z,11.17
2017-10-30T17:06:44.678Z,11.11
2017-10-30T17:09:19.503Z,11.07
2017-10-30T17:11:54.314Z,11.01
2017-10-30T17:14:28.942Z,10.96
2017-10-30T17:17:04.600Z,10.91
2017-10-30T17:19:40.160Z,10.88
2017-10-30T17:22:14.861Z,10.93
2017-10-30T17:24:49.795Z,11.07
2017-10-30T17:27:24.330Z,11.23
2017-10-30T17:29:59.099Z,11.21
2017-10-30T17:32:33.804Z,10.99
2017-10-30T17:35:08.459Z,10.74
2017-10-30T17:37:43.112Z,10.58
2017-10-30T17:40:17.751Z,10.45
2017-10-30T17:42:52.427Z,10.41
2017-10-30T17:45:26.951Z,10.39
2017-10-30T17:48:03.786Z,10.34
2017-10-30T17:50:38.423Z,10.30
2017-10-30T17:53:13.376Z,10.32
2017-10-30T17:55:48.149Z,10.33
2017-10-30T17:58:23.159Z,10.31
2017-10-30T18:00:57.971Z,10.41
2017-10-30T18:03:32.631Z,10.36
2017-10-30T18:06:07.399Z,10.37
2017-10-30T18:08:43.068Z,10.39
2017-10-30T18:11:17.679Z,10.41
2017-10-30T18:13:53.327Z,10.32
2017-10-30T18:16:28.175Z,10.25
2017-10-30T18:19:03.827Z,10.23
2017-10-30T18:21:38.502Z,10.22
2017-10-30T18:24:12.956Z,10.19
2017-10-30T18:26:48.266Z,10.21
2017-10-30T18:29:22.930Z,10.14
2017-10-30T18:31:57.698Z,10.12
2017-10-30T18:34:32.504Z,10.11
2017-10-30T18:37:07.114Z,10.14
2017-10-30T18:39:42.112Z,10.15
2017-10-30T18:42:16.663Z,10.18
2017-10-30T18:44:51.331Z,10.11
2017-10-30T18:47:26.171Z,10.09
2017-10-30T18:50:00.948Z,10.07
2017-10-30T18:52:35.799Z,10.10
2017-10-30T18:55:10.420Z,10.10
2017-10-30T18:57:45.043Z,10.08
2017-10-30T19:00:19.899Z,10.00
2017-10-30T19:02:54.703Z,9.90
2017-10-30T19:05:29.182Z,9.82
2017-10-30T19:08:03.896Z,9.74
2017-10-30T19:10:38.491Z,9.69
2017-10-30T19:13:13.198Z,9.64
2017-10-30T19:15:48.067Z,9.69
2017-10-30T19:18:22.863Z,9.72
2017-10-30T19:20:57.700Z,9.78
2017-10-30T19:23:32.459Z,9.79
2017-10-30T19:26:07.255Z,9.84
2017-10-30T19:28:41.964Z,9.82
2017-10-30T19:31:16.835Z,9.83
2017-10-30T19:33:55.815Z,9.83
2017-10-30T19:36:30.375Z,9.78
2017-10-30T19:39:04.503Z,9.83
2017-10-30T19:41:40.659Z,9.83
2017-10-30T19:44:15.256Z,9.70
2017-10-30T19:46:50.407Z,9.63
2017-10-30T19:49:25.083Z,9.61
2017-10-30T19:51:59.715Z,9.60
2017-10-30T19:54:34.246Z,9.58
2017-10-30T19:57:09.325Z,9.50
2017-10-30T19:59:44.032Z,9.53
2017-10-30T20:02:19.479Z,9.53
2017-10-30T20:04:54.403Z,9.43
2017-10-30T20:20:56.691Z,9.30
2017-10-30T20:23:31.375Z,9.28
2017-10-30T20:26:06.067Z,9.22
2017-10-30T20:28:40.803Z,9.20
2017-10-30T20:31:16.467Z,9.22
2017-10-30T20:33:50.987Z,9.21
2017-10-30T20:36:25.835Z,9.19
2017-10-30T20:39:00.591Z,9.21
2017-10-30T20:41:35.019Z,9.22
2017-10-30T20:44:09.790Z,9.19
2017-10-30T20:46:44.527Z,9.16
2017-10-30T20:49:19.315Z,9.12
2017-10-30T20:51:54.074Z,9.10
2017-10-30T20:54:28.889Z,9.05
2017-10-30T20:57:03.751Z,9.00
2017-10-30T20:59:38.654Z,9.00
2017-10-30T21:02:14.179Z,8.99
2017-10-30T21:04:49.100Z,8.95
2017-10-30T21:07:24.026Z,8.98
2017-10-30T21:09:58.602Z,9.05
2017-10-30T21:12:33.551Z,9.04
2017-10-30T21:15:08.423Z,8.98
2017-10-30T21:17:43.055Z,8.91
2017-10-30T21:20:17.775Z,8.78
2017-10-30T21:22:52.619Z,8.76
2017-10-30T21:25:27.351Z,8.68
2017-10-30T21:28:02.111Z,8.60
2017-10-30T21:30:36.839Z,8.61
2017-10-30T21:33:10.986Z,8.64
2017-10-30T21:35:46.063Z,8.62
2017-10-30T21:38:21.179Z,8.62
2017-10-30T21:40:55.544Z,8.63
2017-10-30T21:43:30.247Z,8.66
2017-10-30T21:46:04.574Z,8.64
2017-10-30T21:48:39.642Z,8.62
2017-10-30T21:51:14.267Z,8.61
2017-10-30T21:53:49.013Z,8.58
2017-10-30T21:56:23.695Z,8.54
2017-10-30T21:58:58.444Z,8.49
2017-10-30T22:01:33.179Z,8.50
2017-10-30T22:04:07.911Z,8.46
2017-10-30T22:06:42.647Z,8.42
2017-10-30T22:09:17.386Z,8.37
2017-10-30T22:11:52.103Z,8.34
2017-10-30T22:14:27.865Z,8.30
2017-10-30T22:17:02.603Z,8.25
2017-10-30T22:19:37.438Z,8.22
2017-10-30T22:22:13.044Z,8.23
2017-10-30T22:24:48.844Z,8.19
2017-10-30T22:27:23.519Z,8.18
2017-10-30T22:29:58.170Z,8.14
2017-10-30T22:32:32.879Z,8.15
2017-10-30T22:35:07.699Z,8.12
2017-10-30T22:37:42.443Z,8.08
2017-10-30T22:40:17.191Z,8.02
2017-10-30T22:42:51.995Z,7.94
2017-10-30T22:45:26.791Z,7.89
2017-10-30T22:48:01.407Z,7.89
2017-10-30T22:50:35.938Z,7.86
2017-10-30T22:53:10.786Z,7.82
2017-10-30T22:55:45.555Z,7.81
2017-10-30T22:58:21.319Z,7.82
2017-10-30T23:00:55.946Z,7.81
2017-10-30T23:03:30.568Z,7.83
2017-10-30T23:06:04.949Z,7.86
2017-10-30T23:08:39.906Z,7.85
2017-10-30T23:11:14.663Z,7.85
2017-10-30T23:13:49.383Z,7.83
2017-10-30T23:16:24.303Z,7.83
2017-10-30T23:18:58.947Z,7.81
2017-10-30T23:21:33.790Z,7.81
2017-10-30T23:24:09.059Z,7.83
2017-10-30T23:26:44.000Z,7.81
2017-10-30T23:29:18.706Z,7.72
2017-10-30T23:31:53.322Z,7.70
2017-10-30T23:34:27.915Z,7.68
2017-10-30T23:37:02.682Z,7.66
2017-10-30T23:39:37.324Z,7.64
2017-10-30T23:42:11.995Z,7.59
2017-10-30T23:44:46.695Z,7.56
2017-10-30T23:47:21.471Z,7.55
2017-10-30T23:49:56.451Z,7.56
2017-10-30T23:52:31.787Z,7.58
2017-10-30T23:55:06.363Z,7.60
2017-10-30T23:57:41.210Z,7.60
